sensor_id;sensor_type;location;lat;lon;timestamp;P1;durP1;ratioP1;P2;durP2;ratioP2
10088;SDS011;51898;49.864;8.550;2022-08-04T00:00:04;10.13;;;6.80;;
10088;SDS011;51898;49.864;8.550;2022-08-04T00:03:15;7.63;;;6.93;;
10088;SDS011;51898;49.864;8.550;2022-08-04T00:07:02;7.40;;;6.70;;
10088;SDS011;51898;49.864;8.550;2022-08-04T00:10:15;6.57;;;5.87;;
10088;SDS011;51898;49.864;8.550;2022-08-04T00:13:21;7.37;;;5.83;;
10088;SDS011;51898;49.864;8.550;2022-08-04T00:16:24;7.23;;;6.37;;
10088;SDS011;51898;49.864;8.550;2022-08-04T00:19:39;8.97;;;5.83;;
10088;SDS011;51898;49.864;8.550;2022-08-04T00:22:44;5.80;;;5.33;;
10088;SDS011;51898;49.864;8.550;2022-08-04T00:25:47;9.10;;;6.03;;
10088;SDS011;51898;49.864;8.550;2022-08-04T00:28:49;7.53;;;6.67;;
10088;SDS011;51898;49.864;8.550;2022-08-04T00:31:51;7.93;;;6.20;;
10088;SDS011;51898;49.864;8.550;2022-08-04T00:34:58;7.43;;;5.53;;
10088;SDS011;51898;49.864;8.550;2022-08-04T00:38:00;6.53;;;5.93;;
10088;SDS011;51898;49.864;8.550;2022-08-04T00:44:12;5.70;;;5.30;;
10088;SDS011;51898;49.864;8.550;2022-08-04T00:47:29;5.73;;;5.20;;
10088;SDS011;51898;49.864;8.550;2022-08-04T00:50:49;10.17;;;5.90;;
10088;SDS011;51898;49.864;8.550;2022-08-04T00:54:37;6.10;;;5.60;;
10088;SDS011;51898;49.864;8.550;2022-08-04T01:01:30;6.53;;;5.50;;
10088;SDS011;51898;49.864;8.550;2022-08-04T01:15:29;6.80;;;6.00;;
10088;SDS011;51898;49.864;8.550;2022-08-04T01:19:07;15.27;;;7.30;;
10088;SDS011;51898;49.864;8.550;2022-08-04T01:26:24;7.60;;;6.90;;
10088;SDS011;51898;49.864;8.550;2022-08-04T01:29:58;8.40;;;6.73;;
10088;SDS011;51898;49.864;8.550;2022-08-04T01:33:06;7.23;;;6.50;;
10088;SDS011;51898;49.864;8.550;2022-08-04T01:36:12;10.40;;;6.90;;
10088;SDS011;51898;49.864;8.550;2022-08-04T01:39:14;7.10;;;6.30;;
10088;SDS011;51898;49.864;8.550;2022-08-04T01:42:36;9.13;;;6.70;;
10088;SDS011;51898;49.864;8.550;2022-08-04T01:45:39;6.70;;;6.10;;
10088;SDS011;51898;49.864;8.550;2022-08-04T01:48:45;6.80;;;6.20;;
10088;SDS011;51898;49.864;8.550;2022-08-04T01:51:50;6.03;;;5.53;;
10088;SDS011;51898;49.864;8.550;2022-08-04T01:54:54;8.80;;;6.20;;
10088;SDS011;51898;49.864;8.550;2022-08-04T01:57:58;8.20;;;6.33;;
10088;SDS011;51898;49.864;8.550;2022-08-04T02:01:05;7.40;;;6.70;;
10088;SDS011;51898;49.864;8.550;2022-08-04T02:04:18;9.13;;;6.30;;
10088;SDS011;51898;49.864;8.550;2022-08-04T02:07:29;7.77;;;7.03;;
10088;SDS011;51898;49.864;8.550;2022-08-04T02:11:03;7.77;;;7.07;;
10088;SDS011;51898;49.864;8.550;2022-08-04T02:14:24;7.40;;;6.70;;
10088;SDS011;51898;49.864;8.550;2022-08-04T02:17:51;8.13;;;6.70;;
10088;SDS011;51898;49.864;8.550;2022-08-04T02:21:13;8.43;;;6.70;;
10088;SDS011;51898;49.864;8.550;2022-08-04T02:24:20;7.37;;;6.73;;
10088;SDS011;51898;49.864;8.550;2022-08-04T02:27:31;9.40;;;6.67;;
10088;SDS011;51898;49.864;8.550;2022-08-04T02:37:24;9.57;;;7.30;;
10088;SDS011;51898;49.864;8.550;2022-08-04T02:40:27;7.40;;;6.70;;
10088;SDS011;51898;49.864;8.550;2022-08-04T02:43:30;7.90;;;7.10;;
10088;SDS011;51898;49.864;8.550;2022-08-04T02:46:52;7.30;;;6.60;;
10088;SDS011;51898;49.864;8.550;2022-08-04T02:49:56;7.10;;;6.30;;
10088;SDS011;51898;49.864;8.550;2022-08-04T02:52:59;7.07;;;6.47;;
10088;SDS011;51898;49.864;8.550;2022-08-04T02:56:10;11.93;;;7.00;;
10088;SDS011;51898;49.864;8.550;2022-08-04T02:59:12;7.83;;;7.20;;
10088;SDS011;51898;49.864;8.550;2022-08-04T03:02:15;7.70;;;6.50;;
10088;SDS011;51898;49.864;8.550;2022-08-04T03:05:27;7.60;;;7.00;;
10088;SDS011;51898;49.864;8.550;2022-08-04T03:26:28;9.30;;;7.50;;
10088;SDS011;51898;49.864;8.550;2022-08-04T03:30:03;8.97;;;7.57;;
10088;SDS011;51898;49.864;8.550;2022-08-04T03:33:23;8.00;;;7.27;;
10088;SDS011;51898;49.864;8.550;2022-08-04T03:43:28;7.80;;;7.10;;
10088;SDS011;51898;49.864;8.550;2022-08-04T03:46:58;7.57;;;6.97;;
10088;SDS011;51898;49.864;8.550;2022-08-04T04:00:35;8.67;;;7.77;;
10088;SDS011;51898;49.864;8.550;2022-08-04T04:04:17;9.23;;;8.07;;
10088;SDS011;51898;49.864;8.550;2022-08-04T04:07:55;9.10;;;8.20;;
10088;SDS011;51898;49.864;8.550;2022-08-04T04:18:09;8.33;;;7.60;;
10088;SDS011;51898;49.864;8.550;2022-08-04T04:21:29;8.03;;;7.33;;
10088;SDS011;51898;49.864;8.550;2022-08-04T04:28:27;7.83;;;7.13;;
10088;SDS011;51898;49.864;8.550;2022-08-04T04:31:52;8.93;;;7.40;;
10088;SDS011;51898;49.864;8.550;2022-08-04T04:35:12;9.40;;;8.23;;
10088;SDS011;51898;49.864;8.550;2022-08-04T04:41:56;12.30;;;8.70;;
10088;SDS011;51898;49.864;8.550;2022-08-04T04:45:29;9.80;;;8.80;;
10088;SDS011;51898;49.864;8.550;2022-08-04T04:48:47;10.30;;;9.30;;
10088;SDS011;51898;49.864;8.550;2022-08-04T04:55:23;10.53;;;9.47;;
10088;SDS011;51898;49.864;8.550;2022-08-04T04:58:29;10.83;;;8.83;;
10088;SDS011;51898;49.864;8.550;2022-08-04T05:01:50;8.50;;;7.73;;
10088;SDS011;51898;49.864;8.550;2022-08-04T05:11:56;8.73;;;7.93;;
10088;SDS011;51898;49.864;8.550;2022-08-04T05:15:30;8.53;;;7.67;;
10088;SDS011;51898;49.864;8.550;2022-08-04T05:18:36;9.50;;;8.30;;
10088;SDS011;51898;49.864;8.550;2022-08-04T05:21:59;10.60;;;8.73;;
10088;SDS011;51898;49.864;8.550;2022-08-04T05:25:06;11.53;;;7.63;;
10088;SDS011;51898;49.864;8.550;2022-08-04T05:28:15;8.30;;;7.60;;
10088;SDS011;51898;49.864;8.550;2022-08-04T05:31:23;7.73;;;7.10;;
10088;SDS011;51898;49.864;8.550;2022-08-04T05:34:29;8.67;;;7.87;;
10088;SDS011;51898;49.864;8.550;2022-08-04T05:37:37;9.83;;;7.57;;
10088;SDS011;51898;49.864;8.550;2022-08-04T05:40:40;8.40;;;7.53;;
10088;SDS011;51898;49.864;8.550;2022-08-04T05:43:43;8.83;;;7.93;;
10088;SDS011;51898;49.864;8.550;2022-08-04T05:46:46;9.30;;;8.40;;
10088;SDS011;51898;49.864;8.550;2022-08-04T05:49:54;10.73;;;9.63;;
10088;SDS011;51898;49.864;8.550;2022-08-04T05:53:03;9.17;;;8.27;;
10088;SDS011;51898;49.864;8.550;2022-08-04T05:56:06;9.23;;;8.43;;
10088;SDS011;51898;49.864;8.550;2022-08-04T05:59:09;10.33;;;8.00;;
10088;SDS011;51898;49.864;8.550;2022-08-04T06:02:11;9.77;;;8.87;;
10088;SDS011;51898;49.864;8.550;2022-08-04T06:05:16;9.67;;;7.70;;
10088;SDS011;51898;49.864;8.550;2022-08-04T06:08:19;9.50;;;8.60;;
10088;SDS011;51898;49.864;8.550;2022-08-04T06:11:20;8.50;;;7.80;;
10088;SDS011;51898;49.864;8.550;2022-08-04T06:14:23;9.40;;;8.60;;
10088;SDS011;51898;49.864;8.550;2022-08-04T06:17:32;8.73;;;8.00;;
10088;SDS011;51898;49.864;8.550;2022-08-04T06:20:58;8.83;;;7.67;;
10088;SDS011;51898;49.864;8.550;2022-08-04T06:24:19;8.27;;;7.57;;
10088;SDS011;51898;49.864;8.550;2022-08-04T06:27:24;7.73;;;7.13;;
10088;SDS011;51898;49.864;8.550;2022-08-04T06:30:29;8.50;;;7.80;;
10088;SDS011;51898;49.864;8.550;2022-08-04T06:33:32;9.23;;;7.93;;
10088;SDS011;51898;49.864;8.550;2022-08-04T06:36:54;9.07;;;8.27;;
10088;SDS011;51898;49.864;8.550;2022-08-04T06:39:57;8.70;;;7.80;;
10088;SDS011;51898;49.864;8.550;2022-08-04T06:43:05;12.43;;;8.67;;
10088;SDS011;51898;49.864;8.550;2022-08-04T06:46:07;10.80;;;8.60;;
10088;SDS011;51898;49.864;8.550;2022-08-04T06:49:09;10.07;;;8.13;;
10088;SDS011;51898;49.864;8.550;2022-08-04T06:52:13;11.33;;;7.83;;
10088;SDS011;51898;49.864;8.550;2022-08-04T06:55:17;9.83;;;8.53;;
10088;SDS011;51898;49.864;8.550;2022-08-04T06:58:19;10.77;;;8.57;;
10088;SDS011;51898;49.864;8.550;2022-08-04T07:01:22;10.97;;;8.80;;
10088;SDS011;51898;49.864;8.550;2022-08-04T07:04:26;8.80;;;8.00;;
10088;SDS011;51898;49.864;8.550;2022-08-04T07:07:28;9.53;;;8.27;;
10088;SDS011;51898;49.864;8.550;2022-08-04T07:10:37;9.83;;;9.00;;
10088;SDS011;51898;49.864;8.550;2022-08-04T07:13:40;10.33;;;9.33;;
10088;SDS011;51898;49.864;8.550;2022-08-04T07:16:45;8.97;;;8.33;;
10088;SDS011;51898;49.864;8.550;2022-08-04T07:19:50;8.93;;;8.10;;
10088;SDS011;51898;49.864;8.550;2022-08-04T07:22:53;8.53;;;7.83;;
10088;SDS011;51898;49.864;8.550;2022-08-04T07:25:56;10.50;;;8.57;;
10088;SDS011;51898;49.864;8.550;2022-08-04T07:29:13;8.30;;;7.50;;
10088;SDS011;51898;49.864;8.550;2022-08-04T07:32:16;13.83;;;8.87;;
10088;SDS011;51898;49.864;8.550;2022-08-04T07:35:20;9.90;;;9.00;;
10088;SDS011;51898;49.864;8.550;2022-08-04T07:38:43;9.57;;;7.83;;
10088;SDS011;51898;49.864;8.550;2022-08-04T07:41:51;8.90;;;8.10;;
10088;SDS011;51898;49.864;8.550;2022-08-04T07:44:55;13.10;;;9.20;;
10088;SDS011;51898;49.864;8.550;2022-08-04T07:47:59;10.43;;;8.32;;
10088;SDS011;51898;49.864;8.550;2022-08-04T07:51:07;9.90;;;8.88;;
10088;SDS011;51898;49.864;8.550;2022-08-04T07:54:08;11.03;;;8.50;;
10088;SDS011;51898;49.864;8.550;2022-08-04T07:57:11;9.85;;;8.80;;
10088;SDS011;51898;49.864;8.550;2022-08-04T08:00:19;9.95;;;9.13;;
10088;SDS011;51898;49.864;8.550;2022-08-04T08:03:21;9.85;;;8.95;;
10088;SDS011;51898;49.864;8.550;2022-08-04T08:06:25;8.53;;;7.80;;
10088;SDS011;51898;49.864;8.550;2022-08-04T08:09:34;11.48;;;8.00;;
10088;SDS011;51898;49.864;8.550;2022-08-04T08:12:36;9.07;;;8.27;;
10088;SDS011;51898;49.864;8.550;2022-08-04T08:15:51;8.38;;;7.68;;
10088;SDS011;51898;49.864;8.550;2022-08-04T08:18:54;7.30;;;6.68;;
10088;SDS011;51898;49.864;8.550;2022-08-04T08:21:56;8.23;;;7.60;;
10088;SDS011;51898;49.864;8.550;2022-08-04T08:25:01;7.68;;;7.18;;
10088;SDS011;51898;49.864;8.550;2022-08-04T08:28:05;8.80;;;8.10;;
10088;SDS011;51898;49.864;8.550;2022-08-04T08:31:06;8.20;;;7.47;;
10088;SDS011;51898;49.864;8.550;2022-08-04T08:34:09;7.85;;;7.15;;
10088;SDS011;51898;49.864;8.550;2022-08-04T08:37:33;8.05;;;7.50;;
10088;SDS011;51898;49.864;8.550;2022-08-04T08:40:47;7.80;;;7.05;;
10088;SDS011;51898;49.864;8.550;2022-08-04T08:51:06;7.65;;;7.03;;
10088;SDS011;51898;49.864;8.550;2022-08-04T08:54:53;7.18;;;6.68;;
10088;SDS011;51898;49.864;8.550;2022-08-04T09:01:42;7.10;;;6.50;;
10088;SDS011;51898;49.864;8.550;2022-08-04T09:08:55;8.05;;;6.15;;
10088;SDS011;51898;49.864;8.550;2022-08-04T09:12:13;6.55;;;6.05;;
10088;SDS011;51898;49.864;8.550;2022-08-04T09:15:48;6.32;;;5.93;;
10088;SDS011;51898;49.864;8.550;2022-08-04T09:19:11;9.90;;;5.80;;
10088;SDS011;51898;49.864;8.550;2022-08-04T09:22:42;7.75;;;7.15;;
10088;SDS011;51898;49.864;8.550;2022-08-04T09:29:13;6.70;;;6.20;;
10088;SDS011;51898;49.864;8.550;2022-08-04T09:32:37;6.40;;;5.80;;
10088;SDS011;51898;49.864;8.550;2022-08-04T09:35:50;7.13;;;6.40;;
10088;SDS011;51898;49.864;8.550;2022-08-04T09:39:11;7.38;;;6.75;;
10088;SDS011;51898;49.864;8.550;2022-08-04T09:42:40;7.90;;;6.90;;
10088;SDS011;51898;49.864;8.550;2022-08-04T09:45:47;6.72;;;6.32;;
10088;SDS011;51898;49.864;8.550;2022-08-04T09:49:01;8.00;;;7.30;;
10088;SDS011;51898;49.864;8.550;2022-08-04T09:52:22;6.78;;;6.18;;
10088;SDS011;51898;49.864;8.550;2022-08-04T09:55:47;6.65;;;6.15;;
10088;SDS011;51898;49.864;8.550;2022-08-04T10:02:20;7.20;;;6.50;;
10088;SDS011;51898;49.864;8.550;2022-08-04T10:05:25;6.50;;;5.97;;
10088;SDS011;51898;49.864;8.550;2022-08-04T10:18:44;7.45;;;6.85;;
10088;SDS011;51898;49.864;8.550;2022-08-04T10:22:14;6.50;;;5.90;;
10088;SDS011;51898;49.864;8.550;2022-08-04T10:29:13;7.07;;;6.38;;
10088;SDS011;51898;49.864;8.550;2022-08-04T10:32:22;6.70;;;6.20;;
10088;SDS011;51898;49.864;8.550;2022-08-04T10:35:31;8.00;;;6.32;;
10088;SDS011;51898;49.864;8.550;2022-08-04T10:42:30;5.93;;;5.50;;
10088;SDS011;51898;49.864;8.550;2022-08-04T10:45:40;6.35;;;5.88;;
10088;SDS011;51898;49.864;8.550;2022-08-04T10:48:54;6.70;;;6.20;;
10088;SDS011;51898;49.864;8.550;2022-08-04T10:52:06;7.18;;;6.40;;
10088;SDS011;51898;49.864;8.550;2022-08-04T10:55:22;6.28;;;5.88;;
10088;SDS011;51898;49.864;8.550;2022-08-04T10:59:02;6.03;;;5.60;;
10088;SDS011;51898;49.864;8.550;2022-08-04T11:06:11;6.15;;;5.65;;
10088;SDS011;51898;49.864;8.550;2022-08-04T11:09:05;6.90;;;6.10;;
10088;SDS011;51898;49.864;8.550;2022-08-04T11:12:16;6.53;;;6.03;;
10088;SDS011;51898;49.864;8.550;2022-08-04T11:15:22;7.50;;;6.05;;
10088;SDS011;51898;49.864;8.550;2022-08-04T11:21:54;6.10;;;5.60;;
10088;SDS011;51898;49.864;8.550;2022-08-04T11:28:22;5.47;;;5.07;;
10088;SDS011;51898;49.864;8.550;2022-08-04T11:31:40;6.53;;;5.22;;
10088;SDS011;51898;49.864;8.550;2022-08-04T11:34:53;6.13;;;5.43;;
10088;SDS011;51898;49.864;8.550;2022-08-04T11:41:36;7.15;;;5.50;;
10088;SDS011;51898;49.864;8.550;2022-08-04T11:44:48;6.00;;;5.60;;
10088;SDS011;51898;49.864;8.550;2022-08-04T11:48:05;5.40;;;5.10;;
10088;SDS011;51898;49.864;8.550;2022-08-04T11:51:13;6.30;;;5.80;;
10088;SDS011;51898;49.864;8.550;2022-08-04T11:54:16;5.57;;;5.20;;
10088;SDS011;51898;49.864;8.550;2022-08-04T11:57:19;6.72;;;6.10;;
10088;SDS011;51898;49.864;8.550;2022-08-04T12:00:27;4.55;;;4.22;;
10088;SDS011;51898;49.864;8.550;2022-08-04T12:10:46;6.07;;;5.78;;
10088;SDS011;51898;49.864;8.550;2022-08-04T12:14:13;6.38;;;5.65;;
10088;SDS011;51898;49.864;8.550;2022-08-04T12:17:47;5.57;;;5.18;;
10088;SDS011;51898;49.864;8.550;2022-08-04T12:21:10;6.05;;;5.65;;
10088;SDS011;51898;49.864;8.550;2022-08-04T12:24:22;5.70;;;5.30;;
10088;SDS011;51898;49.864;8.550;2022-08-04T12:27:40;5.93;;;5.40;;
10088;SDS011;51898;49.864;8.550;2022-08-04T12:30:51;5.28;;;4.97;;
10088;SDS011;51898;49.864;8.550;2022-08-04T12:34:14;5.82;;;5.32;;
10088;SDS011;51898;49.864;8.550;2022-08-04T12:41:08;5.10;;;4.80;;
10088;SDS011;51898;49.864;8.550;2022-08-04T12:44:12;5.00;;;4.80;;
10088;SDS011;51898;49.864;8.550;2022-08-04T12:47:34;5.85;;;5.20;;
10088;SDS011;51898;49.864;8.550;2022-08-04T12:50:38;5.88;;;5.47;;
10088;SDS011;51898;49.864;8.550;2022-08-04T12:53:41;6.03;;;5.63;;
10088;SDS011;51898;49.864;8.550;2022-08-04T12:56:52;5.55;;;5.22;;
10088;SDS011;51898;49.864;8.550;2022-08-04T12:59:58;5.50;;;5.30;;
10088;SDS011;51898;49.864;8.550;2022-08-04T13:03:03;6.57;;;5.63;;
10088;SDS011;51898;49.864;8.550;2022-08-04T13:06:11;5.82;;;5.20;;
10088;SDS011;51898;49.864;8.550;2022-08-04T13:09:25;5.40;;;4.90;;
10088;SDS011;51898;49.864;8.550;2022-08-04T13:12:33;5.18;;;4.88;;
10088;SDS011;51898;49.864;8.550;2022-08-04T13:15:35;5.93;;;5.50;;
10088;SDS011;51898;49.864;8.550;2022-08-04T13:18:56;4.70;;;4.40;;
10088;SDS011;51898;49.864;8.550;2022-08-04T13:22:05;5.30;;;4.90;;
10088;SDS011;51898;49.864;8.550;2022-08-04T13:25:07;6.28;;;4.75;;
10088;SDS011;51898;49.864;8.550;2022-08-04T13:28:30;8.00;;;5.07;;
10088;SDS011;51898;49.864;8.550;2022-08-04T13:31:36;4.75;;;4.45;;
10088;SDS011;51898;49.864;8.550;2022-08-04T13:34:53;5.68;;;5.28;;
10088;SDS011;51898;49.864;8.550;2022-08-04T13:37:56;7.90;;;5.20;;
10088;SDS011;51898;49.864;8.550;2022-08-04T13:40:59;8.55;;;5.53;;
10088;SDS011;51898;49.864;8.550;2022-08-04T13:44:04;5.25;;;4.82;;
10088;SDS011;51898;49.864;8.550;2022-08-04T13:47:20;5.50;;;5.10;;
10088;SDS011;51898;49.864;8.550;2022-08-04T13:50:27;5.25;;;4.85;;
10088;SDS011;51898;49.864;8.550;2022-08-04T13:53:34;5.22;;;4.90;;
10088;SDS011;51898;49.864;8.550;2022-08-04T13:56:38;6.65;;;4.82;;
10088;SDS011;51898;49.864;8.550;2022-08-04T13:59:52;7.07;;;4.65;;
10088;SDS011;51898;49.864;8.550;2022-08-04T14:03:01;4.90;;;4.60;;
10088;SDS011;51898;49.864;8.550;2022-08-04T14:06:31;6.13;;;4.75;;
10088;SDS011;51898;49.864;8.550;2022-08-04T14:09:35;5.22;;;4.85;;
10088;SDS011;51898;49.864;8.550;2022-08-04T14:12:43;5.45;;;5.05;;
10088;SDS011;51898;49.864;8.550;2022-08-04T14:15:47;5.75;;;5.35;;
10088;SDS011;51898;49.864;8.550;2022-08-04T14:19:04;5.18;;;4.88;;
10088;SDS011;51898;49.864;8.550;2022-08-04T14:22:07;5.28;;;5.07;;
10088;SDS011;51898;49.864;8.550;2022-08-04T14:25:15;5.00;;;4.53;;
10088;SDS011;51898;49.864;8.550;2022-08-04T14:28:27;5.00;;;4.60;;
10088;SDS011;51898;49.864;8.550;2022-08-04T14:31:50;7.22;;;5.75;;
10088;SDS011;51898;49.864;8.550;2022-08-04T14:35:09;4.75;;;4.55;;
10088;SDS011;51898;49.864;8.550;2022-08-04T14:38:11;5.47;;;5.00;;
10088;SDS011;51898;49.864;8.550;2022-08-04T14:41:13;5.47;;;5.18;;
10088;SDS011;51898;49.864;8.550;2022-08-04T14:44:16;5.68;;;5.18;;
10088;SDS011;51898;49.864;8.550;2022-08-04T14:47:17;5.63;;;5.22;;
10088;SDS011;51898;49.864;8.550;2022-08-04T14:50:19;5.28;;;4.97;;
10088;SDS011;51898;49.864;8.550;2022-08-04T14:53:33;5.95;;;5.22;;
10088;SDS011;51898;49.864;8.550;2022-08-04T14:56:38;4.68;;;4.47;;
10088;SDS011;51898;49.864;8.550;2022-08-04T14:59:48;5.28;;;4.88;;
10088;SDS011;51898;49.864;8.550;2022-08-04T15:03:02;5.03;;;4.70;;
10088;SDS011;51898;49.864;8.550;2022-08-04T15:06:08;4.95;;;4.65;;
10088;SDS011;51898;49.864;8.550;2022-08-04T15:09:16;5.05;;;4.68;;
10088;SDS011;51898;49.864;8.550;2022-08-04T15:12:18;5.13;;;4.85;;
10088;SDS011;51898;49.864;8.550;2022-08-04T15:15:21;5.00;;;4.60;;
10088;SDS011;51898;49.864;8.550;2022-08-04T15:18:37;7.28;;;4.72;;
10088;SDS011;51898;49.864;8.550;2022-08-04T15:21:39;5.50;;;5.15;;
10088;SDS011;51898;49.864;8.550;2022-08-04T15:24:41;5.13;;;4.82;;
10088;SDS011;51898;49.864;8.550;2022-08-04T15:27:44;7.43;;;5.22;;
10088;SDS011;51898;49.864;8.550;2022-08-04T15:30:48;5.43;;;5.13;;
10088;SDS011;51898;49.864;8.550;2022-08-04T15:33:54;5.80;;;4.57;;
10088;SDS011;51898;49.864;8.550;2022-08-04T15:36:56;5.25;;;4.85;;
10088;SDS011;51898;49.864;8.550;2022-08-04T15:43:44;5.72;;;5.00;;
10088;SDS011;51898;49.864;8.550;2022-08-04T15:47:17;4.93;;;4.70;;
10088;SDS011;51898;49.864;8.550;2022-08-04T15:50:20;5.30;;;4.78;;
10088;SDS011;51898;49.864;8.550;2022-08-04T15:56:51;5.13;;;4.78;;
10088;SDS011;51898;49.864;8.550;2022-08-04T16:00:04;4.88;;;4.60;;
10088;SDS011;51898;49.864;8.550;2022-08-04T16:07:03;5.03;;;4.65;;
10088;SDS011;51898;49.864;8.550;2022-08-04T16:13:35;5.15;;;4.78;;
10088;SDS011;51898;49.864;8.550;2022-08-04T16:20:00;5.28;;;4.78;;
10088;SDS011;51898;49.864;8.550;2022-08-04T16:26:55;5.22;;;4.57;;
10088;SDS011;51898;49.864;8.550;2022-08-04T16:30:02;4.80;;;4.60;;
10088;SDS011;51898;49.864;8.550;2022-08-04T16:33:07;5.28;;;5.07;;
10088;SDS011;51898;49.864;8.550;2022-08-04T16:43:53;5.40;;;4.68;;
10088;SDS011;51898;49.864;8.550;2022-08-04T16:54:10;5.15;;;4.95;;
10088;SDS011;51898;49.864;8.550;2022-08-04T16:57:11;4.72;;;4.47;;
10088;SDS011;51898;49.864;8.550;2022-08-04T17:00:14;5.38;;;4.97;;
10088;SDS011;51898;49.864;8.550;2022-08-04T17:03:18;4.80;;;4.50;;
10088;SDS011;51898;49.864;8.550;2022-08-04T17:06:19;4.57;;;4.18;;
10088;SDS011;51898;49.864;8.550;2022-08-04T17:09:22;4.95;;;4.75;;
10088;SDS011;51898;49.864;8.550;2022-08-04T17:12:28;5.13;;;4.82;;
10088;SDS011;51898;49.864;8.550;2022-08-04T17:15:30;6.35;;;5.10;;
10088;SDS011;51898;49.864;8.550;2022-08-04T17:18:33;5.30;;;4.80;;
10088;SDS011;51898;49.864;8.550;2022-08-04T17:21:37;5.53;;;5.00;;
10088;SDS011;51898;49.864;8.550;2022-08-04T17:24:40;4.90;;;4.60;;
10088;SDS011;51898;49.864;8.550;2022-08-04T17:27:42;5.72;;;5.10;;
10088;SDS011;51898;49.864;8.550;2022-08-04T17:31:05;7.22;;;4.40;;
10088;SDS011;51898;49.864;8.550;2022-08-04T17:34:13;5.35;;;4.20;;
10088;SDS011;51898;49.864;8.550;2022-08-04T17:37:20;5.20;;;4.68;;
10088;SDS011;51898;49.864;8.550;2022-08-04T17:40:58;4.13;;;3.92;;
10088;SDS011;51898;49.864;8.550;2022-08-04T17:44:33;9.00;;;4.95;;
10088;SDS011;51898;49.864;8.550;2022-08-04T17:47:48;4.90;;;4.43;;
10088;SDS011;51898;49.864;8.550;2022-08-04T17:50:51;5.47;;;4.97;;
10088;SDS011;51898;49.864;8.550;2022-08-04T17:53:56;4.70;;;4.40;;
10088;SDS011;51898;49.864;8.550;2022-08-04T17:57:13;7.07;;;4.90;;
10088;SDS011;51898;49.864;8.550;2022-08-04T18:00:21;4.90;;;4.55;;
10088;SDS011;51898;49.864;8.550;2022-08-04T18:03:24;4.85;;;4.00;;
10088;SDS011;51898;49.864;8.550;2022-08-04T18:06:30;4.80;;;4.50;;
10088;SDS011;51898;49.864;8.550;2022-08-04T18:09:37;5.00;;;4.40;;
10088;SDS011;51898;49.864;8.550;2022-08-04T18:13:07;5.25;;;4.75;;
10088;SDS011;51898;49.864;8.550;2022-08-04T18:16:14;5.13;;;4.72;;
10088;SDS011;51898;49.864;8.550;2022-08-04T18:19:22;5.85;;;5.00;;
10088;SDS011;51898;49.864;8.550;2022-08-04T18:22:24;12.95;;;5.50;;
10088;SDS011;51898;49.864;8.550;2022-08-04T18:25:28;6.07;;;4.65;;
10088;SDS011;51898;49.864;8.550;2022-08-04T18:28:50;5.30;;;4.80;;
10088;SDS011;51898;49.864;8.550;2022-08-04T18:31:52;5.00;;;4.70;;
10088;SDS011;51898;49.864;8.550;2022-08-04T18:34:54;4.53;;;4.22;;
10088;SDS011;51898;49.864;8.550;2022-08-04T18:37:55;5.60;;;5.10;;
10088;SDS011;51898;49.864;8.550;2022-08-04T18:41:08;9.18;;;4.85;;
10088;SDS011;51898;49.864;8.550;2022-08-04T18:44:09;5.22;;;4.78;;
10088;SDS011;51898;49.864;8.550;2022-08-04T18:47:13;5.68;;;5.18;;
10088;SDS011;51898;49.864;8.550;2022-08-04T18:50:23;9.50;;;5.32;;
10088;SDS011;51898;49.864;8.550;2022-08-04T18:53:44;7.07;;;4.93;;
10088;SDS011;51898;49.864;8.550;2022-08-04T18:56:58;11.68;;;5.85;;
10088;SDS011;51898;49.864;8.550;2022-08-04T19:00:20;8.40;;;4.95;;
10088;SDS011;51898;49.864;8.550;2022-08-04T19:03:23;4.80;;;4.47;;
10088;SDS011;51898;49.864;8.550;2022-08-04T19:06:30;6.55;;;4.95;;
10088;SDS011;51898;49.864;8.550;2022-08-04T19:09:33;9.48;;;4.90;;
10088;SDS011;51898;49.864;8.550;2022-08-04T19:12:52;5.00;;;4.60;;
10088;SDS011;51898;49.864;8.550;2022-08-04T19:15:54;7.15;;;5.20;;
10088;SDS011;51898;49.864;8.550;2022-08-04T19:18:59;5.43;;;5.05;;
10088;SDS011;51898;49.864;8.550;2022-08-04T19:22:05;5.07;;;4.60;;
10088;SDS011;51898;49.864;8.550;2022-08-04T19:25:08;8.25;;;6.50;;
10088;SDS011;51898;49.864;8.550;2022-08-04T19:28:10;6.55;;;5.45;;
10088;SDS011;51898;49.864;8.550;2022-08-04T19:31:18;7.10;;;4.70;;
10088;SDS011;51898;49.864;8.550;2022-08-04T19:34:28;5.15;;;4.75;;
10088;SDS011;51898;49.864;8.550;2022-08-04T19:37:35;12.02;;;5.45;;
10088;SDS011;51898;49.864;8.550;2022-08-04T19:40:56;8.65;;;5.35;;
10088;SDS011;51898;49.864;8.550;2022-08-04T19:43:58;5.22;;;4.40;;
10088;SDS011;51898;49.864;8.550;2022-08-04T19:47:00;7.10;;;4.93;;
10088;SDS011;51898;49.864;8.550;2022-08-04T19:50:22;4.97;;;4.68;;
10088;SDS011;51898;49.864;8.550;2022-08-04T19:53:24;5.65;;;4.63;;
10088;SDS011;51898;49.864;8.550;2022-08-04T19:56:37;5.25;;;4.75;;
10088;SDS011;51898;49.864;8.550;2022-08-04T19:59:41;7.88;;;4.78;;
10088;SDS011;51898;49.864;8.550;2022-08-04T20:02:48;9.77;;;4.82;;
10088;SDS011;51898;49.864;8.550;2022-08-04T20:05:50;6.05;;;4.63;;
10088;SDS011;51898;49.864;8.550;2022-08-04T20:08:56;6.05;;;5.00;;
10088;SDS011;51898;49.864;8.550;2022-08-04T20:11:57;4.75;;;4.45;;
10088;SDS011;51898;49.864;8.550;2022-08-04T20:14:59;5.50;;;5.00;;
10088;SDS011;51898;49.864;8.550;2022-08-04T20:18:03;5.18;;;4.78;;
10088;SDS011;51898;49.864;8.550;2022-08-04T20:21:25;5.22;;;4.82;;
10088;SDS011;51898;49.864;8.550;2022-08-04T20:24:47;5.55;;;5.15;;
10088;SDS011;51898;49.864;8.550;2022-08-04T20:28:01;5.95;;;4.55;;
10088;SDS011;51898;49.864;8.550;2022-08-04T20:31:03;6.18;;;4.78;;
10088;SDS011;51898;49.864;8.550;2022-08-04T20:34:08;7.15;;;4.95;;
10088;SDS011;51898;49.864;8.550;2022-08-04T20:37:09;8.57;;;4.68;;
10088;SDS011;51898;49.864;8.550;2022-08-04T20:40:13;4.78;;;4.47;;
10088;SDS011;51898;49.864;8.550;2022-08-04T20:43:15;5.18;;;4.78;;
10088;SDS011;51898;49.864;8.550;2022-08-04T20:46:20;6.90;;;4.65;;
10088;SDS011;51898;49.864;8.550;2022-08-04T20:49:30;5.28;;;4.80;;
10088;SDS011;51898;49.864;8.550;2022-08-04T20:52:35;4.85;;;4.55;;
10088;SDS011;51898;49.864;8.550;2022-08-04T20:55:38;6.05;;;4.53;;
10088;SDS011;51898;49.864;8.550;2022-08-04T20:58:56;4.70;;;4.30;;
10088;SDS011;51898;49.864;8.550;2022-08-04T21:01:57;7.00;;;4.43;;
10088;SDS011;51898;49.864;8.550;2022-08-04T21:04:59;6.78;;;4.97;;
10088;SDS011;51898;49.864;8.550;2022-08-04T21:08:01;4.93;;;4.50;;
10088;SDS011;51898;49.864;8.550;2022-08-04T21:11:03;5.80;;;5.20;;
10088;SDS011;51898;49.864;8.550;2022-08-04T21:14:07;5.80;;;5.07;;
10088;SDS011;51898;49.864;8.550;2022-08-04T21:17:12;8.68;;;5.20;;
10088;SDS011;51898;49.864;8.550;2022-08-04T21:20:17;5.00;;;4.60;;
10088;SDS011;51898;49.864;8.550;2022-08-04T21:23:28;5.07;;;4.55;;
10088;SDS011;51898;49.864;8.550;2022-08-04T21:26:34;4.40;;;4.10;;
10088;SDS011;51898;49.864;8.550;2022-08-04T21:29:37;5.20;;;4.82;;
10088;SDS011;51898;49.864;8.550;2022-08-04T21:32:39;4.97;;;4.60;;
10088;SDS011;51898;49.864;8.550;2022-08-04T21:35:42;7.07;;;4.60;;
10088;SDS011;51898;49.864;8.550;2022-08-04T21:38:43;6.60;;;5.40;;
10088;SDS011;51898;49.864;8.550;2022-08-04T21:41:52;6.63;;;4.93;;
10088;SDS011;51898;49.864;8.550;2022-08-04T21:45:14;5.30;;;4.70;;
10088;SDS011;51898;49.864;8.550;2022-08-04T21:48:19;5.90;;;5.27;;
10088;SDS011;51898;49.864;8.550;2022-08-04T21:51:22;11.27;;;5.07;;
10088;SDS011;51898;49.864;8.550;2022-08-04T21:54:45;6.90;;;5.23;;
10088;SDS011;51898;49.864;8.550;2022-08-04T21:57:54;5.80;;;5.30;;
10088;SDS011;51898;49.864;8.550;2022-08-04T22:00:58;6.90;;;5.30;;
10088;SDS011;51898;49.864;8.550;2022-08-04T22:04:00;5.77;;;5.07;;
10088;SDS011;51898;49.864;8.550;2022-08-04T22:07:02;5.27;;;4.77;;
10088;SDS011;51898;49.864;8.550;2022-08-04T22:10:04;6.97;;;5.53;;